createdAt,value
2019-04-06T00:00:39.715Z,5.92
2019-04-06T00:03:08.193Z,4.50
2019-04-06T00:05:36.769Z,5.10
2019-04-06T00:08:05.173Z,8.35
2019-04-06T00:10:33.846Z,5.53
2019-04-06T00:13:02.418Z,4.85
2019-04-06T00:15:30.819Z,7.70
2019-04-06T00:17:59.334Z,6.40
2019-04-06T00:20:27.801Z,5.58
2019-04-06T00:22:56.197Z,4.67
2019-04-06T00:25:24.650Z,4.25
2019-04-06T00:27:53.074Z,6.58
2019-04-06T00:30:21.489Z,5.20
2019-04-06T00:32:51.536Z,8.10
2019-04-06T00:35:20.026Z,7.28
2019-04-06T00:37:48.485Z,3.77
2019-04-06T00:40:16.941Z,5.15
2019-04-06T00:42:45.486Z,5.67
2019-04-06T00:45:14.006Z,5.30
2019-04-06T00:47:42.470Z,6.83
2019-04-06T00:50:11.011Z,5.92
2019-04-06T00:52:39.538Z,5.33
2019-04-06T00:55:07.967Z,7.03
2019-04-06T00:57:36.424Z,8.15
2019-04-06T01:00:06.721Z,4.85
2019-04-06T01:02:35.108Z,5.50
2019-04-06T01:05:05.937Z,5.05
2019-04-06T01:07:34.300Z,5.10
2019-04-06T01:10:03.059Z,5.58
2019-04-06T01:12:31.636Z,4.75
2019-04-06T01:15:00.088Z,4.55
2019-04-06T01:17:28.484Z,4.92
2019-04-06T01:19:57.010Z,5.67
2019-04-06T01:22:25.391Z,5.78
2019-04-06T01:24:53.816Z,7.45
2019-04-06T01:27:22.314Z,4.72
2019-04-06T01:29:50.713Z,4.95
2019-04-06T01:32:19.110Z,3.75
2019-04-06T01:34:47.529Z,4.92
2019-04-06T01:37:15.854Z,4.80
2019-04-06T01:39:44.213Z,5.22
2019-04-06T01:42:12.670Z,8.50
2019-04-06T01:44:41.111Z,5.05
2019-04-06T01:47:09.502Z,6.65
2019-04-06T01:49:38.150Z,4.33
2019-04-06T01:52:06.653Z,4.80
2019-04-06T01:54:36.657Z,5.30
2019-04-06T01:57:05.125Z,4.47
2019-04-06T01:59:33.486Z,3.35
2019-04-06T02:02:12.576Z,4.55
2019-04-06T02:04:41.002Z,5.67
2019-04-06T02:07:09.582Z,5.62
2019-04-06T02:09:37.977Z,5.90
2019-04-06T02:12:06.353Z,5.37
2019-04-06T02:14:34.783Z,4.85
2019-04-06T02:17:04.318Z,5.87
2019-04-06T02:19:32.691Z,4.20
2019-04-06T02:22:01.158Z,5.37
2019-04-06T02:24:29.689Z,5.42
2019-04-06T02:26:58.176Z,6.17
2019-04-06T02:29:26.646Z,6.03
2019-04-06T02:31:56.863Z,4.80
2019-04-06T02:34:43.135Z,5.80
2019-04-06T02:37:16.491Z,5.60
2019-04-06T02:40:02.627Z,5.70
2019-04-06T02:42:32.707Z,7.95
2019-04-06T02:45:01.176Z,5.53
2019-04-06T02:47:29.540Z,7.22
2019-04-06T02:49:57.966Z,5.28
2019-04-06T02:52:26.400Z,5.28
2019-04-06T02:54:54.887Z,7.65
2019-04-06T02:57:23.249Z,5.10
2019-04-06T02:59:51.753Z,7.58
2019-04-06T03:02:20.155Z,7.12
2019-04-06T03:04:48.543Z,5.35
2019-04-06T03:07:17.010Z,6.05
2019-04-06T03:09:45.466Z,5.83
2019-04-06T03:12:13.890Z,7.30
2019-04-06T03:14:44.572Z,5.95
2019-04-06T03:17:12.543Z,5.45
2019-04-06T03:19:41.053Z,8.00
2019-04-06T03:22:09.596Z,6.25
2019-04-06T03:24:38.048Z,5.83
2019-04-06T03:27:06.415Z,6.47
2019-04-06T03:29:34.936Z,5.87
2019-04-06T03:32:03.914Z,5.83
2019-04-06T03:34:32.634Z,5.75
2019-04-06T03:37:01.122Z,4.45
2019-04-06T03:39:29.553Z,6.35
2019-04-06T03:41:57.984Z,8.95
2019-04-06T03:44:26.274Z,6.85
2019-04-06T03:46:54.716Z,6.10
2019-04-06T03:49:23.241Z,7.58
2019-04-06T03:51:51.758Z,7.20
2019-04-06T03:54:20.137Z,4.40
2019-04-06T03:56:48.679Z,5.85
2019-04-06T03:59:17.124Z,5.53
2019-04-06T04:01:45.599Z,5.28
2019-04-06T04:04:14.096Z,5.95
2019-04-06T04:06:42.558Z,5.33
2019-04-06T04:09:10.743Z,4.33
2019-04-06T04:11:40.427Z,4.87
2019-04-06T04:14:08.930Z,5.95
2019-04-06T04:16:37.387Z,6.20
2019-04-06T04:19:08.635Z,5.40
2019-04-06T04:21:37.110Z,5.33
2019-04-06T04:24:05.546Z,5.85
2019-04-06T04:26:35.214Z,6.75
2019-04-06T04:29:03.718Z,5.65
2019-04-06T04:31:32.204Z,5.62
2019-04-06T04:34:00.576Z,5.22
2019-04-06T04:36:29.065Z,5.40
2019-04-06T04:38:57.631Z,6.95
2019-04-06T04:41:25.988Z,5.08
2019-04-06T04:43:54.487Z,6.17
2019-04-06T04:46:24.164Z,6.47
2019-04-06T04:48:52.725Z,4.78
2019-04-06T04:51:21.177Z,4.85
2019-04-06T04:53:49.629Z,4.55
2019-04-06T04:56:18.042Z,6.00
2019-04-06T04:58:47.397Z,5.30
2019-04-06T05:01:15.915Z,6.22
2019-04-06T05:03:44.402Z,6.28
2019-04-06T05:06:12.859Z,6.92
2019-04-06T05:08:41.438Z,7.37
2019-04-06T05:11:09.989Z,5.95
2019-04-06T05:13:38.448Z,5.20
2019-04-06T05:16:14.244Z,4.80
2019-04-06T05:18:43.015Z,8.00
2019-04-06T05:21:11.742Z,5.22
2019-04-06T05:23:59.709Z,5.72
2019-04-06T05:26:36.790Z,7.53
2019-04-06T05:28:58.232Z,5.42
2019-04-06T05:31:26.948Z,6.70
2019-04-06T05:33:55.428Z,6.12
2019-04-06T05:36:23.884Z,6.90
2019-04-06T05:38:52.401Z,5.12
2019-04-06T05:41:20.957Z,4.70
2019-04-06T05:43:49.336Z,5.53
2019-04-06T05:46:17.831Z,6.50
2019-04-06T05:48:46.450Z,7.37
2019-04-06T05:51:14.813Z,5.62
2019-04-06T05:53:43.204Z,5.22
2019-04-06T05:56:11.624Z,4.90
2019-04-06T05:58:41.258Z,4.35
2019-04-06T06:01:11.031Z,6.00
2019-04-06T06:03:41.098Z,7.45
2019-04-06T06:06:12.338Z,6.35
2019-04-06T06:08:40.082Z,5.72
2019-04-06T06:11:08.515Z,6.08
2019-04-06T06:13:39.303Z,5.08
2019-04-06T06:16:07.098Z,6.30
2019-04-06T06:18:35.567Z,6.97
2019-04-06T06:21:04.038Z,6.60
2019-04-06T06:23:32.481Z,5.70
2019-04-06T06:26:01.212Z,5.90
2019-04-06T06:28:30.029Z,5.50
2019-04-06T06:30:58.646Z,5.47
2019-04-06T06:33:27.125Z,5.85
2019-04-06T06:35:55.609Z,5.67
2019-04-06T06:38:24.078Z,12.40
2019-04-06T06:40:52.462Z,10.32
2019-04-06T06:43:21.248Z,14.93
2019-04-06T06:45:50.137Z,13.20
2019-04-06T06:48:18.603Z,15.98
2019-04-06T06:50:47.088Z,15.05
2019-04-06T06:53:15.609Z,17.02
2019-04-06T06:55:44.037Z,16.00
2019-04-06T06:58:12.342Z,20.55
2019-04-06T07:00:40.889Z,22.65
2019-04-06T07:03:09.344Z,23.65
2019-04-06T07:05:37.851Z,29.12
2019-04-06T07:08:06.456Z,27.30
2019-04-06T07:10:34.749Z,26.33
2019-04-06T07:13:03.063Z,28.20
2019-04-06T07:15:31.763Z,25.62
2019-04-06T07:18:00.261Z,28.67
2019-04-06T07:20:29.174Z,25.32
2019-04-06T07:22:57.749Z,27.32
2019-04-06T07:25:26.159Z,27.35
2019-04-06T07:27:54.733Z,26.17
2019-04-06T07:30:24.292Z,27.90
2019-04-06T07:32:55.231Z,26.75
2019-04-06T07:35:42.447Z,27.52
2019-04-06T07:38:10.964Z,27.25
2019-04-06T07:40:39.523Z,26.27
2019-04-06T07:43:07.984Z,26.35
2019-04-06T07:45:36.371Z,25.12
2019-04-06T07:48:04.868Z,25.72
2019-04-06T07:50:33.355Z,26.15
2019-04-06T07:53:01.929Z,27.37
2019-04-06T07:55:30.742Z,26.35
2019-04-06T07:57:59.112Z,21.97
2019-04-06T08:00:27.504Z,25.75
2019-04-06T08:02:55.958Z,26.07
2019-04-06T08:05:24.484Z,26.70
2019-04-06T08:07:54.078Z,26.20
2019-04-06T08:10:22.518Z,26.30
2019-04-06T08:12:50.904Z,29.57
2019-04-06T08:15:19.703Z,25.70
2019-04-06T08:17:48.504Z,32.45
2019-04-06T08:20:17.136Z,29.02
2019-04-06T08:22:45.758Z,29.95
2019-04-06T08:25:14.160Z,26.65
2019-04-06T08:27:42.621Z,32.03
2019-04-06T08:30:11.201Z,31.80
2019-04-06T08:32:39.638Z,33.50
2019-04-06T08:35:08.137Z,34.08
2019-04-06T08:37:36.681Z,31.40
2019-04-06T08:40:08.170Z,30.08
2019-04-06T08:42:36.651Z,32.98
2019-04-06T08:45:06.236Z,32.38
2019-04-06T08:47:34.596Z,34.27
2019-04-06T08:50:03.881Z,34.10
2019-04-06T08:52:32.389Z,29.45
2019-04-06T08:55:00.760Z,29.65
2019-04-06T08:57:29.323Z,31.80
2019-04-06T08:59:57.979Z,28.15
2019-04-06T09:02:28.430Z,27.00
2019-04-06T09:04:56.525Z,31.10
2019-04-06T09:07:24.994Z,27.90
2019-04-06T09:09:53.470Z,25.72
2019-04-06T09:12:22.147Z,26.40
2019-04-06T09:14:51.032Z,26.37
2019-04-06T09:17:19.775Z,23.65
2019-04-06T09:19:48.293Z,22.67
2019-04-06T09:22:16.796Z,21.82
2019-04-06T09:24:45.096Z,23.50
2019-04-06T09:27:13.570Z,21.77
2019-04-06T09:29:42.096Z,24.25
2019-04-06T09:32:10.490Z,23.90
2019-04-06T09:34:38.889Z,23.35
2019-04-06T09:37:07.334Z,23.25
2019-04-06T09:39:35.686Z,22.25
2019-04-06T09:42:04.427Z,22.02
2019-04-06T09:44:50.753Z,22.20
2019-04-06T09:49:52.645Z,20.72
2019-04-06T09:52:25.709Z,25.32
2019-04-06T09:54:58.768Z,25.17
2019-04-06T09:57:28.796Z,23.47
2019-04-06T09:59:58.841Z,24.30
2019-04-06T10:02:45.343Z,23.67
2019-04-06T10:05:33.580Z,24.77
2019-04-06T10:08:18.950Z,24.92
2019-04-06T10:11:05.675Z,23.83
2019-04-06T10:13:38.785Z,23.73
2019-04-06T10:16:08.759Z,24.87
2019-04-06T10:18:44.825Z,24.50
2019-04-06T10:21:14.914Z,20.65
2019-04-06T10:23:44.997Z,22.37
2019-04-06T10:26:15.054Z,26.07
2019-04-06T10:28:53.851Z,26.80
2019-04-06T10:31:40.320Z,28.52
2019-04-06T10:34:28.498Z,25.65
2019-04-06T10:37:14.653Z,26.40
2019-04-06T10:39:44.710Z,22.58
2019-04-06T10:42:17.766Z,26.10
2019-04-06T10:44:59.853Z,29.37
2019-04-06T10:47:46.603Z,25.17
2019-04-06T10:50:19.341Z,29.75
2019-04-06T10:52:52.427Z,26.25
2019-04-06T10:55:31.250Z,27.13
2019-04-06T10:58:01.623Z,23.32
2019-04-06T11:00:34.657Z,23.20
2019-04-06T11:03:04.777Z,26.17
2019-04-06T11:05:46.654Z,24.63
2019-04-06T11:08:52.461Z,23.60
2019-04-06T11:14:08.681Z,21.50
2019-04-06T11:16:55.111Z,20.20
2019-04-06T11:22:17.223Z,20.57
2019-04-06T11:24:47.586Z,21.02
2019-04-06T11:27:29.674Z,20.43
2019-04-06T11:30:16.451Z,18.05
2019-04-06T11:33:01.851Z,17.05
2019-04-06T11:35:43.690Z,14.90
2019-04-06T11:38:13.792Z,17.77
2019-04-06T11:40:59.118Z,18.75
2019-04-06T11:43:29.226Z,19.93
2019-04-06T11:46:05.255Z,18.77
2019-04-06T11:48:47.689Z,17.90
2019-04-06T11:51:24.027Z,19.92
2019-04-06T11:53:54.401Z,22.65
2019-04-06T11:56:33.903Z,27.30
2019-04-06T11:59:06.696Z,25.25
2019-04-06T12:01:48.650Z,26.12
2019-04-06T12:04:21.760Z,23.10
2019-04-06T12:07:10.176Z,24.18
2019-04-06T12:09:43.421Z,23.50
2019-04-06T12:12:19.603Z,25.10
2019-04-06T12:15:05.952Z,26.35
2019-04-06T12:17:36.001Z,27.67
2019-04-06T12:20:10.929Z,27.52
2019-04-06T12:22:51.222Z,26.60
2019-04-06T12:25:30.190Z,26.42
2019-04-06T12:28:16.703Z,24.90
2019-04-06T12:31:03.110Z,28.50
2019-04-06T12:33:33.223Z,27.55
2019-04-06T12:36:03.645Z,27.05
2019-04-06T12:38:50.272Z,22.55
2019-04-06T12:41:20.438Z,16.07
2019-04-06T12:44:08.657Z,14.28
2019-04-06T12:46:55.383Z,14.10
2019-04-06T12:49:42.141Z,10.72
2019-04-06T12:52:21.383Z,11.18
2019-04-06T12:55:00.538Z,11.10
2019-04-06T12:57:47.231Z,11.48
2019-04-06T13:00:23.749Z,8.70
2019-04-06T13:05:23.427Z,9.80
2019-04-06T13:08:10.021Z,8.90
2019-04-06T13:10:40.429Z,12.60
2019-04-06T13:13:19.489Z,11.20
2019-04-06T13:15:49.558Z,10.40
2019-04-06T13:18:19.628Z,11.15
2019-04-06T13:20:49.765Z,11.18
2019-04-06T13:23:25.425Z,10.98
2019-04-06T13:26:07.504Z,11.25
2019-04-06T13:28:40.386Z,11.28
2019-04-06T13:31:10.507Z,12.15
2019-04-06T13:33:40.546Z,12.88
2019-04-06T13:36:27.087Z,12.43
2019-04-06T13:39:00.008Z,11.60
2019-04-06T13:41:29.996Z,12.15
2019-04-06T13:44:16.798Z,13.88
2019-04-06T13:47:04.939Z,12.20
2019-04-06T13:49:38.094Z,12.88
2019-04-06T13:52:11.143Z,14.95
2019-04-06T13:54:47.060Z,14.15
2019-04-06T13:57:19.525Z,14.75
2019-04-06T13:59:49.866Z,15.78
2019-04-06T14:02:26.227Z,13.90
2019-04-06T14:05:13.043Z,16.12
2019-04-06T14:07:49.010Z,14.78
2019-04-06T14:10:21.757Z,14.33
2019-04-06T14:12:51.715Z,13.58
2019-04-06T14:15:38.289Z,14.70
2019-04-06T14:18:11.177Z,14.20
2019-04-06T14:20:46.971Z,14.38
2019-04-06T14:23:20.149Z,14.35
2019-04-06T14:25:53.776Z,14.40
2019-04-06T14:28:40.772Z,14.80
2019-04-06T14:31:29.524Z,18.92
2019-04-06T14:34:01.598Z,19.57
2019-04-06T14:36:31.684Z,22.25
2019-04-06T14:39:18.015Z,21.00
2019-04-06T14:42:03.157Z,20.90
2019-04-06T14:44:33.226Z,22.00
2019-04-06T14:47:06.233Z,20.17
2019-04-06T14:49:39.130Z,16.55
2019-04-06T14:52:25.719Z,18.65
2019-04-06T14:55:11.137Z,18.20
2019-04-06T14:57:41.156Z,18.98
2019-04-06T15:00:23.515Z,19.82
2019-04-06T15:02:59.612Z,19.05
2019-04-06T15:05:42.100Z,20.08
2019-04-06T15:08:18.029Z,19.67
2019-04-06T15:10:51.064Z,21.60
2019-04-06T15:13:30.288Z,19.35
2019-04-06T15:16:10.025Z,20.48
2019-04-06T15:18:56.886Z,22.15
2019-04-06T15:21:33.333Z,21.33
2019-04-06T15:26:50.915Z,20.80
2019-04-06T15:29:24.057Z,22.63
2019-04-06T15:32:03.419Z,22.67
2019-04-06T15:34:33.710Z,19.77
2019-04-06T15:37:06.373Z,19.82
2019-04-06T15:39:42.371Z,20.27
2019-04-06T15:42:12.482Z,22.75
2019-04-06T15:44:58.981Z,20.95
2019-04-06T15:47:35.304Z,22.93
2019-04-06T15:50:06.671Z,22.25
2019-04-06T15:52:42.687Z,21.57
2019-04-06T15:55:18.960Z,23.77
2019-04-06T15:57:49.028Z,22.73
2019-04-06T16:00:22.084Z,21.25
2019-04-06T16:02:52.219Z,20.92
2019-04-06T16:05:31.242Z,21.10
2019-04-06T16:08:04.219Z,22.15
2019-04-06T16:10:49.420Z,21.42
2019-04-06T16:13:19.417Z,22.55
2019-04-06T16:15:52.347Z,22.98
2019-04-06T16:18:28.244Z,25.08
2019-04-06T16:21:16.876Z,23.77
2019-04-06T16:24:01.166Z,24.07
2019-04-06T16:26:30.812Z,23.85
2019-04-06T16:29:01.091Z,23.32
2019-04-06T16:31:34.274Z,26.82
2019-04-06T16:34:19.687Z,23.98
2019-04-06T16:37:07.806Z,25.70
2019-04-06T16:39:47.001Z,23.60
2019-04-06T16:42:23.352Z,25.27
2019-04-06T16:44:53.565Z,24.27
2019-04-06T16:47:26.318Z,24.23
2019-04-06T16:50:02.161Z,25.08
2019-04-06T16:52:41.377Z,25.97
2019-04-06T16:55:12.130Z,26.27
2019-04-06T16:57:54.026Z,25.17
2019-04-06T17:00:24.124Z,24.65
2019-04-06T17:03:10.385Z,27.82
2019-04-06T17:05:57.154Z,28.57
2019-04-06T17:08:27.233Z,29.77
2019-04-06T17:11:15.666Z,27.67
2019-04-06T17:13:45.914Z,31.07
2019-04-06T17:16:22.443Z,30.68
2019-04-06T17:19:01.398Z,31.05
2019-04-06T17:21:40.992Z,28.45
2019-04-06T17:24:14.017Z,27.82
2019-04-06T17:26:53.042Z,28.52
2019-04-06T17:29:23.337Z,27.35
2019-04-06T17:31:56.371Z,28.30
2019-04-06T17:34:29.307Z,26.68
2019-04-06T17:37:05.214Z,27.62
2019-04-06T17:39:53.291Z,27.82
2019-04-06T17:42:26.442Z,26.97
2019-04-06T17:44:56.596Z,22.60
2019-04-06T17:47:40.260Z,27.42
2019-04-06T17:50:16.496Z,22.62
2019-04-06T17:52:48.344Z,24.63
2019-04-06T17:55:36.441Z,22.15
2019-04-06T17:58:09.615Z,27.82
2019-04-06T18:00:42.426Z,24.82
2019-04-06T18:03:18.457Z,22.58
2019-04-06T18:05:51.754Z,23.27
2019-04-06T18:08:27.833Z,25.08
2019-04-06T18:11:14.109Z,22.80
2019-04-06T18:16:21.215Z,23.75
2019-04-06T18:18:49.889Z,23.42
2019-04-06T18:21:18.648Z,24.77
2019-04-06T18:23:47.141Z,22.00
2019-04-06T18:26:15.651Z,24.85
2019-04-06T18:28:44.282Z,23.77
2019-04-06T18:31:30.554Z,25.60
2019-04-06T18:36:43.989Z,25.43
2019-04-06T18:39:15.133Z,24.98
2019-04-06T18:41:43.807Z,24.85
2019-04-06T18:44:12.985Z,27.52
2019-04-06T18:46:42.004Z,25.72
2019-04-06T18:49:10.975Z,27.65
2019-04-06T18:51:39.560Z,27.90
2019-04-06T18:54:09.859Z,26.10
2019-04-06T18:56:40.096Z,26.48
2019-04-06T18:59:09.348Z,28.62
2019-04-06T19:01:39.572Z,29.32
2019-04-06T19:04:08.698Z,27.55
2019-04-06T19:06:37.668Z,24.60
2019-04-06T19:09:19.386Z,27.55
2019-04-06T19:11:39.168Z,25.97
2019-04-06T19:14:08.169Z,27.07
2019-04-06T19:16:37.089Z,27.80
2019-04-06T19:19:06.193Z,29.95
2019-04-06T19:21:35.089Z,28.47
2019-04-06T19:24:04.378Z,29.67
2019-04-06T19:26:37.310Z,28.00
2019-04-06T19:29:05.097Z,26.97
2019-04-06T19:31:33.907Z,28.40
2019-04-06T19:34:02.819Z,30.57
2019-04-06T19:36:31.726Z,30.40
2019-04-06T19:39:00.676Z,26.05
2019-04-06T19:41:29.515Z,29.02
2019-04-06T19:43:58.830Z,31.20
2019-04-06T19:46:28.348Z,31.25
2019-04-06T19:48:58.776Z,27.87
2019-04-06T19:51:27.478Z,31.97
2019-04-06T19:53:56.504Z,29.42
2019-04-06T19:56:25.398Z,28.62
2019-04-06T19:58:54.737Z,36.25
2019-04-06T20:01:24.218Z,30.35
2019-04-06T20:03:53.314Z,31.25
2019-04-06T20:06:22.207Z,31.62
2019-04-06T20:08:51.126Z,30.00
2019-04-06T20:11:20.788Z,30.90
2019-04-06T20:13:49.721Z,28.77
2019-04-06T20:16:18.526Z,30.72
2019-04-06T20:18:48.942Z,30.37
2019-04-06T20:21:17.909Z,30.37
2019-04-06T20:23:46.907Z,31.37
2019-04-06T20:26:15.856Z,32.33
2019-04-06T20:28:44.620Z,33.67
2019-04-06T20:31:13.575Z,31.65
2019-04-06T20:33:50.996Z,32.60
2019-04-06T20:36:13.062Z,29.65
2019-04-06T20:38:42.361Z,30.20
2019-04-06T20:41:10.975Z,28.85
2019-04-06T20:43:39.580Z,31.97
2019-04-06T20:46:08.133Z,32.28
2019-04-06T20:48:36.832Z,30.37
2019-04-06T20:51:05.327Z,30.97
2019-04-06T20:53:34.220Z,32.33
2019-04-06T20:56:02.641Z,32.48
2019-04-06T20:58:31.286Z,32.67
2019-04-06T21:00:59.701Z,30.48
2019-04-06T21:03:28.449Z,30.32
2019-04-06T21:05:57.029Z,32.28
2019-04-06T21:08:25.534Z,30.68
2019-04-06T21:10:53.916Z,32.55
2019-04-06T21:13:22.437Z,32.05
2019-04-06T21:15:51.002Z,33.33
2019-04-06T21:18:19.457Z,33.75
2019-04-06T21:20:48.048Z,32.13
2019-04-06T21:23:17.132Z,26.73
2019-04-06T21:25:46.442Z,31.02
2019-04-06T21:28:16.556Z,33.55
2019-04-06T21:30:45.124Z,31.20
2019-04-06T21:33:13.570Z,32.78
2019-04-06T21:35:42.442Z,33.08
2019-04-06T21:38:10.922Z,28.32
2019-04-06T21:40:39.289Z,31.90
2019-04-06T21:43:07.887Z,31.82
2019-04-06T21:45:36.662Z,32.30
2019-04-06T21:48:05.791Z,29.23
2019-04-06T21:50:35.255Z,30.97
2019-04-06T21:53:03.746Z,29.92
2019-04-06T21:55:32.327Z,31.00
2019-04-06T21:58:00.884Z,28.02
2019-04-06T22:00:47.659Z,28.80
2019-04-06T22:03:16.665Z,28.98
2019-04-06T22:05:45.507Z,28.67
2019-04-06T22:08:14.394Z,28.45
2019-04-06T22:10:43.930Z,29.95
2019-04-06T22:13:13.118Z,28.40
2019-04-06T22:15:41.691Z,29.35
2019-04-06T22:18:10.064Z,28.35
2019-04-06T22:20:38.727Z,29.45
2019-04-06T22:23:07.338Z,29.20
2019-04-06T22:25:35.756Z,29.05
2019-04-06T22:28:04.169Z,27.58
2019-04-06T22:30:32.659Z,28.10
2019-04-06T22:33:01.765Z,27.35
2019-04-06T22:35:30.482Z,27.85
2019-04-06T22:37:58.917Z,26.33
2019-04-06T22:40:27.399Z,27.67
2019-04-06T22:42:56.092Z,27.75
2019-04-06T22:45:26.600Z,24.67
2019-04-06T22:47:55.765Z,27.17
2019-04-06T22:50:24.334Z,25.48
2019-04-06T22:52:52.763Z,24.72
2019-04-06T22:55:21.145Z,26.48
2019-04-06T22:57:50.518Z,26.82
2019-04-06T23:00:27.138Z,27.98
2019-04-06T23:05:47.959Z,26.30
2019-04-06T23:08:16.807Z,25.25
2019-04-06T23:10:45.464Z,24.92
2019-04-06T23:13:14.958Z,27.30
2019-04-06T23:15:43.967Z,25.75
2019-04-06T23:18:12.566Z,24.57
2019-04-06T23:20:41.469Z,25.32
2019-04-06T23:23:10.003Z,28.47
2019-04-06T23:25:38.560Z,26.27
2019-04-06T23:28:07.088Z,26.33
2019-04-06T23:30:35.489Z,25.85
2019-04-06T23:33:03.950Z,27.25
2019-04-06T23:35:32.445Z,28.65
2019-04-06T23:38:00.887Z,23.92
2019-04-06T23:40:29.491Z,26.05
2019-04-06T23:42:58.297Z,28.60
2019-04-06T23:45:26.737Z,28.23
2019-04-06T23:47:55.172Z,28.95
2019-04-06T23:50:23.705Z,28.87
2019-04-06T23:52:52.102Z,28.55
2019-04-06T23:55:21.260Z,29.67
2019-04-06T23:57:49.778Z,29.95
